Wan Hai 508 — 9VJJ6 — position and weather

sailwx.info

Track history (hours):
 
Tides and Currents Weather Stations Pressure Air Temp Water Temp Dewpoint Dewpoint Depression Visibility Wind Speed Wind Dir Waves Ship Positions

Wan Hai 508

Last reported at 2015-Jul-02 03:31 UTC. Time now 2015-Jul-02 03:41 UTC.
Position N 01°17' E 103°46'.

Length 269 m; draft 9.1 m.

Type: Cargo ship. MMSI: 565567000.

Date/timePositionNaut miles runAvg speedWind from/ knotsBaromVisibWave heightAir tempDewpointWater temp
2015-Jul-02 03:31N 01°17' E 103°46'0 0.0
2015-Jul-02 02:31N 01°17' E 103°46'0 0.0
2015-Jul-02 01:28N 01°17' E 103°46'0 0.0
2015-Jul-02 00:31N 01°17' E 103°46'0 0.0
2015-Jul-01 23:28N 01°17' E 103°46'0 0.0
2015-Jul-01 22:28N 01°17' E 103°46'0 0.2
2015-Jul-01 21:33N 01°17' E 103°46'4 4.1
2015-Jul-01 20:33N 01°13' E 103°48'3 3.2
2015-Jul-01 19:29N 01°16' E 103°50'0 0.0
2015-Jul-01 18:32N 01°16' E 103°50'0 0.0
2015-Jul-01 17:32N 01°16' E 103°50'0 0.0
2015-Jul-01 16:29N 01°16' E 103°50'0 0.0
2015-Jul-01 15:32N 01°16' E 103°50'0 0.0
2015-Jul-01 14:32N 01°16' E 103°50'0 0.0
2015-Jul-01 13:32N 01°16' E 103°50'0 0.0
2015-Jul-01 12:29N 01°16' E 103°50'0 0.0
2015-Jul-01 11:29N 01°16' E 103°50'0 0.0
2015-Jul-01 10:32N 01°16' E 103°50'0 0.0
2015-Jul-01 09:32N 01°16' E 103°50'0 0.0
2015-Jul-01 08:29N 01°16' E 103°50'0 0.0
2015-Jul-01 07:29N 01°16' E 103°50'1 0.8
2015-Jul-01 06:33N 01°16' E 103°51'3 3.4
2015-Jul-01 05:33N 01°13' E 103°53'1010.1
2015-Jul-01 04:33N 01°07' E 103°45'5612.8
2015-Jul-01 00:08N 01°33' E 102°55'1117.7
2015-Jun-30 23:31N 01°38' E 102°46'  
Track history (hours):
 
Tides and Currents Weather Stations Pressure Air Temp Water Temp Dewpoint Dewpoint Depression Visibility Wind Speed Wind Dir Waves Ship Positions

Wan Hai 508

Last reported at 2015-Jul-02 03:31 UTC. Time now 2015-Jul-02 03:41 UTC.
Position N 01°17' E 103°46'.

Length 269 m; draft 9.1 m.

Type: Cargo ship. MMSI: 565567000.

Date/timePositionNaut miles runAvg speedWind from/ knotsBaromVisibWave heightAir tempDewpointWater temp
2015-Jul-02 03:31N 01°17' E 103°46'0 0.0
2015-Jul-02 02:31N 01°17' E 103°46'0 0.0
2015-Jul-02 01:28N 01°17' E 103°46'0 0.0
2015-Jul-02 00:31N 01°17' E 103°46'0 0.0
2015-Jul-01 23:28N 01°17' E 103°46'0 0.0
2015-Jul-01 22:28N 01°17' E 103°46'0 0.2
2015-Jul-01 21:33N 01°17' E 103°46'4 4.1
2015-Jul-01 20:33N 01°13' E 103°48'3 3.2
2015-Jul-01 19:29N 01°16' E 103°50'0 0.0
2015-Jul-01 18:32N 01°16' E 103°50'0 0.0
2015-Jul-01 17:32N 01°16' E 103°50'0 0.0
2015-Jul-01 16:29N 01°16' E 103°50'0 0.0
2015-Jul-01 15:32N 01°16' E 103°50'0 0.0
2015-Jul-01 14:32N 01°16' E 103°50'0 0.0
2015-Jul-01 13:32N 01°16' E 103°50'0 0.0
2015-Jul-01 12:29N 01°16' E 103°50'0 0.0
2015-Jul-01 11:29N 01°16' E 103°50'0 0.0
2015-Jul-01 10:32N 01°16' E 103°50'0 0.0
2015-Jul-01 09:32N 01°16' E 103°50'0 0.0
2015-Jul-01 08:29N 01°16' E 103°50'0 0.0
2015-Jul-01 07:29N 01°16' E 103°50'1 0.8
2015-Jul-01 06:33N 01°16' E 103°51'3 3.4
2015-Jul-01 05:33N 01°13' E 103°53'1010.1
2015-Jul-01 04:33N 01°07' E 103°45'5612.8
2015-Jul-01 00:08N 01°33' E 102°55'1117.7
2015-Jun-30 23:31N 01°38' E 102°46'  

Dump ship's entire track history